createdAt,value
2023-02-14T00:01:44.562Z,83.52
2023-02-14T00:04:30.627Z,83.31
2023-02-14T00:07:16.895Z,83.39
2023-02-14T00:10:02.181Z,83.36
2023-02-14T00:12:47.671Z,83.39
2023-02-14T00:15:32.914Z,83.31
2023-02-14T00:18:19.725Z,83.56
2023-02-14T00:21:05.274Z,83.41
2023-02-14T00:23:50.371Z,83.22
2023-02-14T00:26:38.720Z,83.48
2023-02-14T00:29:28.103Z,83.19
2023-02-14T00:32:13.607Z,83.25
2023-02-14T00:35:00.255Z,83.11
2023-02-14T00:37:47.525Z,82.85
2023-02-14T00:40:32.985Z,83.06
2023-02-14T00:43:18.484Z,82.61
2023-02-14T00:46:04.148Z,82.50
2023-02-14T00:48:50.240Z,82.47
2023-02-14T00:51:35.765Z,82.34
2023-02-14T00:54:21.268Z,82.11
2023-02-14T00:57:06.997Z,82.04
2023-02-14T00:59:54.564Z,81.73
2023-02-14T01:02:40.538Z,81.81
2023-02-14T01:05:26.676Z,81.78
2023-02-14T01:08:12.214Z,81.73
2023-02-14T01:10:58.131Z,81.67
2023-02-14T01:13:47.317Z,81.23
2023-02-14T01:16:36.783Z,81.26
2023-02-14T01:19:22.088Z,81.69
2023-02-14T01:22:07.545Z,81.11
2023-02-14T01:24:53.764Z,81.54
2023-02-14T01:27:40.214Z,81.31
2023-02-14T01:30:25.845Z,81.13
2023-02-14T01:33:12.364Z,81.73
2023-02-14T01:35:58.418Z,81.44
2023-02-14T01:38:44.200Z,81.46
2023-02-14T01:41:32.595Z,81.40
2023-02-14T01:44:18.028Z,81.36
2023-02-14T01:47:07.570Z,81.30
2023-02-14T01:50:00.776Z,81.41
2023-02-14T01:52:55.665Z,81.52
2023-02-14T01:55:46.591Z,81.77
2023-02-14T01:58:37.020Z,81.45
2023-02-14T02:01:23.927Z,81.48
2023-02-14T02:04:15.586Z,81.59
2023-02-14T02:07:05.699Z,81.10
2023-02-14T02:09:57.046Z,81.64
2023-02-14T02:12:43.807Z,81.73
2023-02-14T02:15:34.058Z,81.22
2023-02-14T02:18:35.450Z,81.36
2023-02-14T02:21:33.667Z,81.60
2023-02-14T02:24:49.106Z,81.99
2023-02-14T02:27:44.759Z,81.60
2023-02-14T02:30:57.906Z,81.49
2023-02-14T02:33:43.878Z,81.65
2023-02-14T02:36:57.299Z,81.71
2023-02-14T02:40:11.417Z,81.81
2023-02-14T02:42:57.225Z,81.85
2023-02-14T02:46:04.428Z,81.99
2023-02-14T02:49:53.955Z,81.72
2023-02-14T02:53:04.275Z,81.64
2023-02-14T02:56:22.380Z,81.51
2023-02-14T02:59:43.349Z,81.73
2023-02-14T03:02:33.887Z,81.75
2023-02-14T03:05:19.606Z,81.66
2023-02-14T03:08:05.774Z,81.73
2023-02-14T03:10:53.700Z,81.79
2023-02-14T03:14:01.619Z,81.72
2023-02-14T03:17:04.749Z,81.72
2023-02-14T03:20:16.648Z,81.97
2023-02-14T03:23:18.085Z,81.89
2023-02-14T03:26:07.303Z,81.76
2023-02-14T03:28:57.974Z,81.86
2023-02-14T03:32:07.066Z,81.57
2023-02-14T03:35:21.539Z,81.69
2023-02-14T03:38:14.389Z,81.54
2023-02-14T03:41:07.444Z,81.71
2023-02-14T03:43:58.098Z,81.55
2023-02-14T03:46:52.611Z,81.49
2023-02-14T03:49:45.077Z,81.63
2023-02-14T03:52:34.248Z,81.78
2023-02-14T03:55:26.993Z,81.64
2023-02-14T03:58:17.069Z,81.68
2023-02-14T04:01:26.224Z,81.61
2023-02-14T04:04:17.964Z,81.60
2023-02-14T04:07:18.895Z,81.54
2023-02-14T04:10:05.187Z,81.29
2023-02-14T04:12:51.566Z,81.22
2023-02-14T04:15:37.496Z,81.52
2023-02-14T04:18:41.590Z,81.19
2023-02-14T04:21:30.243Z,81.32
2023-02-14T04:24:17.181Z,81.42
2023-02-14T04:27:12.213Z,81.21
2023-02-14T04:29:58.958Z,81.21
2023-02-14T04:32:45.329Z,81.36
2023-02-14T04:35:31.580Z,81.14
2023-02-14T04:38:17.798Z,81.41
2023-02-14T04:41:03.898Z,81.61
2023-02-14T04:43:49.489Z,81.47
2023-02-14T04:46:34.846Z,81.09
2023-02-14T04:49:20.330Z,81.26
2023-02-14T04:52:06.610Z,81.39
2023-02-14T04:54:52.221Z,81.18
2023-02-14T04:57:38.379Z,81.46
2023-02-14T05:00:24.892Z,81.04
2023-02-14T05:03:11.267Z,81.63
2023-02-14T05:05:57.189Z,81.25
2023-02-14T05:08:42.861Z,81.01
2023-02-14T05:11:30.302Z,81.26
2023-02-14T05:14:15.921Z,81.28
2023-02-14T05:17:01.358Z,81.25
2023-02-14T05:19:46.675Z,81.02
2023-02-14T05:22:32.945Z,81.28
2023-02-14T05:25:18.871Z,81.26
2023-02-14T05:28:04.901Z,81.44
2023-02-14T05:30:51.782Z,81.08
2023-02-14T05:33:37.761Z,81.14
2023-02-14T05:36:26.888Z,81.08
2023-02-14T05:39:14.638Z,81.13
2023-02-14T05:42:00.270Z,81.00
2023-02-14T05:44:46.720Z,80.94
2023-02-14T05:47:32.654Z,80.62
2023-02-14T05:50:18.505Z,80.47
2023-02-14T05:53:05.630Z,80.85
2023-02-14T05:55:53.751Z,80.52
2023-02-14T05:58:39.737Z,80.74
2023-02-14T06:01:25.556Z,80.71
2023-02-14T06:04:11.469Z,80.59
2023-02-14T06:06:58.393Z,80.41
2023-02-14T06:09:45.566Z,80.50
2023-02-14T06:12:31.218Z,80.34
2023-02-14T06:15:19.438Z,80.37
2023-02-14T06:18:07.179Z,80.53
2023-02-14T06:20:55.751Z,80.26
2023-02-14T06:23:42.410Z,80.14
2023-02-14T06:26:29.601Z,80.53
2023-02-14T06:29:18.481Z,80.37
2023-02-14T06:32:08.055Z,80.20
2023-02-14T06:34:54.024Z,80.47
2023-02-14T06:37:41.949Z,79.90
2023-02-14T06:40:29.087Z,80.12
2023-02-14T06:43:14.680Z,80.16
2023-02-14T06:46:01.313Z,79.84
2023-02-14T06:48:47.542Z,79.78
2023-02-14T06:51:33.373Z,79.78
2023-02-14T06:54:19.770Z,79.84
2023-02-14T06:57:06.124Z,79.78
2023-02-14T06:59:53.153Z,79.73
2023-02-14T07:02:38.872Z,79.65
2023-02-14T07:05:27.268Z,79.30
2023-02-14T07:08:13.543Z,79.31
2023-02-14T07:11:00.086Z,78.95
2023-02-14T07:13:49.349Z,79.28
2023-02-14T07:16:37.682Z,79.39
2023-02-14T07:19:33.911Z,79.48
2023-02-14T07:22:24.145Z,79.55
2023-02-14T07:25:16.163Z,79.68
2023-02-14T07:28:07.060Z,79.69
2023-02-14T07:30:53.891Z,79.67
2023-02-14T07:33:40.067Z,79.98
2023-02-14T07:36:26.498Z,79.50
2023-02-14T07:39:11.784Z,80.01
2023-02-14T07:41:59.920Z,79.77
2023-02-14T07:44:46.844Z,79.40
2023-02-14T07:47:32.607Z,79.68
2023-02-14T07:50:18.900Z,79.62
2023-02-14T07:53:05.712Z,79.27
2023-02-14T07:55:56.611Z,79.60
2023-02-14T07:58:42.428Z,79.46
2023-02-14T08:01:29.510Z,79.58
2023-02-14T08:04:16.582Z,79.16
2023-02-14T08:07:01.960Z,79.46
2023-02-14T08:09:48.875Z,79.40
2023-02-14T08:12:56.309Z,79.59
2023-02-14T08:16:01.814Z,79.27
2023-02-14T08:18:47.641Z,79.25
2023-02-14T08:21:34.092Z,79.43
2023-02-14T08:24:28.549Z,79.35
2023-02-14T08:31:12.390Z,79.32
2023-02-14T08:33:59.600Z,79.26
2023-02-14T08:36:45.727Z,79.15
2023-02-14T08:39:33.000Z,79.00
2023-02-14T08:42:18.285Z,79.02
2023-02-14T08:45:08.882Z,79.08
2023-02-14T08:47:55.395Z,79.04
2023-02-14T08:50:41.216Z,79.09
2023-02-14T08:53:26.866Z,79.19
2023-02-14T08:56:14.946Z,79.19
2023-02-14T08:59:00.976Z,78.75
2023-02-14T09:01:46.528Z,79.23
2023-02-14T09:04:35.462Z,79.08
2023-02-14T09:07:22.195Z,79.13
2023-02-14T09:10:08.944Z,78.94
2023-02-14T09:12:54.824Z,78.69
2023-02-14T09:15:40.663Z,78.87
2023-02-14T09:18:26.129Z,78.73
2023-02-14T09:21:14.843Z,79.13
2023-02-14T09:24:00.460Z,79.04
2023-02-14T09:26:45.935Z,79.07
2023-02-14T09:29:32.762Z,79.09
2023-02-14T09:32:19.219Z,79.02
2023-02-14T09:35:06.885Z,78.80
2023-02-14T09:37:52.449Z,78.90
2023-02-14T09:40:37.957Z,79.01
2023-02-14T09:43:39.396Z,79.29
2023-02-14T09:46:26.716Z,79.24
2023-02-14T09:49:19.870Z,79.30
2023-02-14T09:52:09.875Z,79.26
2023-02-14T09:55:01.322Z,79.22
2023-02-14T09:57:53.532Z,79.22
2023-02-14T10:00:46.977Z,79.01
2023-02-14T10:04:01.049Z,78.94
2023-02-14T10:07:10.282Z,79.35
2023-02-14T10:10:04.068Z,78.97
2023-02-14T10:13:08.201Z,79.09
2023-02-14T10:16:05.379Z,78.88
2023-02-14T10:19:18.739Z,79.41
2023-02-14T10:22:12.806Z,79.15
2023-02-14T10:25:06.604Z,79.80
2023-02-14T10:27:55.620Z,79.67
2023-02-14T10:30:58.873Z,79.46
2023-02-14T10:33:58.008Z,79.35
2023-02-14T10:37:02.827Z,79.97
2023-02-14T10:40:10.024Z,80.07
2023-02-14T10:43:23.106Z,79.60
2023-02-14T10:46:18.269Z,80.08
2023-02-14T10:49:22.704Z,79.91
2023-02-14T10:52:19.609Z,80.18
2023-02-14T10:55:41.490Z,80.06
2023-02-14T10:58:29.868Z,79.97
2023-02-14T11:01:18.097Z,79.74
2023-02-14T11:04:08.795Z,80.34
2023-02-14T11:06:54.445Z,80.03
2023-02-14T11:09:40.242Z,79.89
2023-02-14T11:12:40.482Z,80.15
2023-02-14T11:15:35.956Z,79.84
2023-02-14T11:18:32.031Z,79.79
2023-02-14T11:21:18.593Z,79.75
2023-02-14T11:24:17.860Z,79.65
2023-02-14T11:27:14.720Z,79.80
2023-02-14T11:30:21.626Z,79.79
2023-02-14T11:33:35.615Z,79.72
2023-02-14T11:36:21.620Z,79.79
2023-02-14T11:39:33.824Z,79.65
2023-02-14T11:42:40.473Z,80.10
2023-02-14T11:45:33.138Z,79.68
2023-02-14T11:48:37.187Z,79.77
2023-02-14T11:51:36.965Z,79.95
2023-02-14T11:54:32.285Z,79.95
2023-02-14T11:57:22.087Z,79.63
2023-02-14T12:00:20.229Z,79.80
2023-02-14T12:03:06.819Z,79.85
2023-02-14T12:05:57.699Z,79.79
2023-02-14T12:08:43.661Z,80.06
2023-02-14T12:11:30.326Z,80.13
2023-02-14T12:14:30.276Z,80.30
2023-02-14T12:17:38.215Z,79.83
2023-02-14T12:20:50.066Z,80.35
2023-02-14T12:23:45.002Z,80.21
2023-02-14T12:26:43.488Z,80.57
2023-02-14T12:29:40.293Z,80.58
2023-02-14T12:32:28.810Z,80.66
2023-02-14T12:35:17.720Z,80.62
2023-02-14T12:38:09.438Z,80.91
2023-02-14T12:41:07.261Z,80.78
2023-02-14T12:43:58.452Z,80.33
2023-02-14T12:47:00.357Z,80.57
2023-02-14T12:50:20.166Z,80.32
2023-02-14T12:53:35.804Z,80.14
2023-02-14T12:56:34.708Z,80.03
2023-02-14T12:59:40.967Z,80.12
2023-02-14T13:03:02.416Z,79.80
2023-02-14T13:05:55.191Z,79.74
2023-02-14T13:09:21.548Z,79.31
2023-02-14T13:12:07.533Z,79.63
2023-02-14T13:15:17.288Z,79.61
2023-02-14T13:18:17.648Z,79.75
2023-02-14T13:21:08.959Z,79.62
2023-02-14T13:24:03.579Z,79.67
2023-02-14T13:26:56.380Z,79.71
2023-02-14T13:29:50.667Z,79.32
2023-02-14T13:32:41.425Z,79.21
2023-02-14T13:35:29.164Z,79.46
2023-02-14T13:38:19.138Z,79.48
2023-02-14T13:41:07.719Z,79.26
2023-02-14T13:44:00.031Z,79.38
2023-02-14T13:46:50.117Z,79.14
2023-02-14T13:49:39.779Z,78.86
2023-02-14T13:52:48.813Z,78.83
2023-02-14T13:55:43.574Z,79.03
2023-02-14T13:58:29.553Z,79.24
2023-02-14T14:01:48.298Z,79.38
2023-02-14T14:04:36.645Z,78.80
2023-02-14T14:07:30.855Z,78.83
2023-02-14T14:10:45.956Z,78.29
2023-02-14T14:13:40.965Z,77.42
2023-02-14T14:16:31.652Z,77.30
2023-02-14T14:19:17.216Z,77.23
2023-02-14T14:22:14.493Z,77.08
2023-02-14T14:25:05.824Z,77.15
2023-02-14T14:27:51.250Z,77.61
2023-02-14T14:30:38.861Z,77.77
2023-02-14T14:33:34.067Z,77.80
2023-02-14T14:36:24.040Z,77.72
2023-02-14T14:39:10.866Z,78.01
2023-02-14T14:42:06.924Z,77.65
2023-02-14T14:44:57.310Z,77.40
2023-02-14T14:47:45.655Z,77.37
2023-02-14T14:50:33.772Z,77.52
2023-02-14T14:53:25.289Z,77.52
2023-02-14T14:56:30.929Z,77.39
2023-02-14T14:59:35.177Z,76.97
2023-02-14T15:02:25.095Z,76.62
2023-02-14T15:05:22.993Z,76.71
2023-02-14T15:08:33.120Z,76.46
2023-02-14T15:11:47.785Z,76.37
2023-02-14T15:14:37.323Z,76.58
2023-02-14T15:17:28.711Z,75.95
2023-02-14T15:20:18.819Z,76.57
2023-02-14T15:23:05.040Z,76.43
2023-02-14T15:25:52.593Z,76.83
2023-02-14T15:28:39.201Z,76.55
2023-02-14T15:31:29.683Z,76.50
2023-02-14T15:34:15.527Z,76.15
2023-02-14T15:37:06.693Z,76.36
2023-02-14T15:39:58.015Z,76.44
2023-02-14T15:42:45.189Z,76.82
2023-02-14T15:45:31.415Z,77.03
2023-02-14T15:48:27.298Z,76.60
2023-02-14T15:51:27.099Z,76.40
2023-02-14T15:54:41.698Z,76.84
2023-02-14T15:57:29.692Z,76.35
2023-02-14T16:00:22.947Z,76.64
2023-02-14T16:03:14.622Z,77.08
2023-02-14T16:06:00.397Z,76.38
2023-02-14T16:08:55.705Z,76.42
2023-02-14T16:11:41.533Z,76.29
2023-02-14T16:14:35.371Z,76.36
2023-02-14T16:17:33.546Z,77.08
2023-02-14T16:20:43.320Z,76.59
2023-02-14T16:23:29.376Z,76.17
2023-02-14T16:26:15.352Z,75.78
2023-02-14T16:29:16.026Z,76.00
2023-02-14T16:32:17.043Z,76.17
2023-02-14T16:35:03.339Z,76.45
2023-02-14T16:37:51.805Z,76.34
2023-02-14T16:40:37.805Z,76.57
2023-02-14T16:43:25.815Z,76.35
2023-02-14T16:46:16.068Z,76.13
2023-02-14T16:49:03.583Z,76.51
2023-02-14T16:51:49.322Z,76.72
2023-02-14T16:54:38.933Z,76.53
2023-02-14T16:57:32.438Z,76.98
2023-02-14T17:00:18.065Z,76.93
2023-02-14T17:03:07.084Z,76.99
2023-02-14T17:05:52.948Z,76.85
2023-02-14T17:08:43.679Z,77.11
2023-02-14T17:11:32.465Z,77.55
2023-02-14T17:14:23.567Z,77.52
2023-02-14T17:17:10.281Z,77.68
2023-02-14T17:19:56.033Z,77.86
2023-02-14T17:22:42.923Z,77.70
2023-02-14T17:25:31.450Z,77.52
2023-02-14T17:28:16.838Z,77.45
2023-02-14T17:31:03.573Z,77.75
2023-02-14T17:33:50.401Z,77.14
2023-02-14T17:36:37.845Z,77.49
2023-02-14T17:39:23.873Z,77.49
2023-02-14T17:42:11.735Z,77.66
2023-02-14T17:44:58.796Z,77.68
2023-02-14T17:47:45.189Z,77.78
2023-02-14T17:50:34.883Z,77.81
2023-02-14T17:53:20.925Z,77.67
2023-02-14T17:56:09.311Z,77.86
2023-02-14T17:58:55.265Z,78.01
2023-02-14T18:01:40.950Z,77.72
2023-02-14T18:04:26.441Z,77.96
2023-02-14T18:07:13.980Z,77.77
2023-02-14T18:09:59.448Z,77.71
2023-02-14T18:12:44.875Z,77.79
2023-02-14T18:15:30.837Z,77.65
2023-02-14T18:18:17.009Z,77.57
2023-02-14T18:21:04.895Z,77.51
2023-02-14T18:23:50.591Z,77.65
2023-02-14T18:26:38.436Z,77.43
2023-02-14T18:29:24.126Z,77.55
2023-02-14T18:32:10.354Z,77.21
2023-02-14T18:34:55.831Z,77.17
2023-02-14T18:37:42.026Z,77.01
2023-02-14T18:40:28.146Z,76.87
2023-02-14T18:43:14.100Z,77.08
2023-02-14T18:46:04.536Z,77.03
2023-02-14T18:48:51.005Z,77.31
2023-02-14T18:51:39.501Z,77.52
2023-02-14T18:54:25.150Z,77.80
2023-02-14T18:57:10.923Z,77.86
2023-02-14T18:59:57.454Z,77.72
2023-02-14T19:02:46.033Z,77.67
2023-02-14T19:05:35.546Z,78.00
2023-02-14T19:08:22.818Z,78.32
2023-02-14T19:11:18.256Z,77.99
2023-02-14T19:14:11.207Z,78.13
2023-02-14T19:16:57.891Z,77.83
2023-02-14T19:19:46.079Z,77.82
2023-02-14T19:22:37.380Z,77.74
2023-02-14T19:25:23.956Z,77.92
2023-02-14T19:28:12.082Z,78.12
2023-02-14T19:30:59.881Z,77.87
2023-02-14T19:33:47.926Z,77.79
2023-02-14T19:36:38.301Z,77.72
2023-02-14T19:39:29.655Z,78.00
2023-02-14T19:42:16.332Z,77.74
2023-02-14T19:45:03.888Z,77.69
2023-02-14T19:47:53.737Z,78.03
2023-02-14T19:50:40.838Z,78.08
2023-02-14T19:53:29.297Z,77.77
2023-02-14T19:56:25.012Z,77.79
2023-02-14T19:59:16.442Z,78.00
2023-02-14T20:02:03.055Z,77.83
2023-02-14T20:04:50.290Z,77.86
2023-02-14T20:07:36.068Z,78.21
2023-02-14T20:10:22.383Z,77.76
2023-02-14T20:13:09.763Z,77.72
2023-02-14T20:15:55.314Z,77.85
2023-02-14T20:18:41.277Z,77.76
2023-02-14T20:21:28.545Z,78.01
2023-02-14T20:24:18.648Z,77.95
2023-02-14T20:27:05.103Z,78.19
2023-02-14T20:29:52.108Z,78.25
2023-02-14T20:32:38.438Z,78.05
2023-02-14T20:35:25.971Z,78.27
2023-02-14T20:38:12.201Z,78.33
2023-02-14T20:40:58.617Z,78.25
2023-02-14T20:43:47.620Z,78.17
2023-02-14T20:46:35.077Z,78.36
2023-02-14T20:49:23.357Z,78.49
2023-02-14T20:52:08.961Z,78.74
2023-02-14T20:54:55.133Z,78.29
2023-02-14T20:57:42.302Z,78.77
2023-02-14T21:00:30.148Z,78.32
2023-02-14T21:03:17.385Z,78.47
2023-02-14T21:06:05.623Z,78.52
2023-02-14T21:08:51.642Z,78.50
2023-02-14T21:11:37.342Z,78.64
2023-02-14T21:14:23.092Z,78.42
2023-02-14T21:17:08.956Z,78.48
2023-02-14T21:19:54.198Z,78.63
2023-02-14T21:22:40.078Z,78.84
2023-02-14T21:25:26.748Z,78.93
2023-02-14T21:28:15.270Z,78.99
2023-02-14T21:31:09.562Z,79.12
2023-02-14T21:33:58.399Z,79.37
2023-02-14T21:36:45.053Z,79.47
2023-02-14T21:39:38.003Z,79.33
2023-02-14T21:42:24.833Z,79.46
2023-02-14T21:45:31.664Z,79.57
2023-02-14T21:48:35.961Z,79.59
2023-02-14T21:51:23.682Z,79.64
2023-02-14T21:54:09.422Z,79.29
2023-02-14T21:56:56.186Z,79.48
2023-02-14T21:59:45.584Z,79.54
2023-02-14T22:02:32.231Z,79.75
2023-02-14T22:05:17.742Z,79.60
2023-02-14T22:08:05.891Z,80.01
2023-02-14T22:10:52.028Z,79.65
2023-02-14T22:13:38.525Z,79.73
2023-02-14T22:16:25.336Z,79.73
2023-02-14T22:19:15.246Z,79.81
2023-02-14T22:22:01.605Z,79.80
2023-02-14T22:30:51.044Z,79.65
2023-02-14T22:33:37.894Z,80.06
2023-02-14T22:36:23.929Z,80.05
2023-02-14T22:39:13.922Z,80.07
2023-02-14T22:42:02.426Z,80.33
2023-02-14T22:44:48.107Z,80.45
2023-02-14T22:47:36.623Z,80.49
2023-02-14T22:50:22.071Z,80.33
2023-02-14T22:53:09.517Z,80.35
2023-02-14T22:55:55.625Z,80.29
2023-02-14T22:58:41.844Z,80.42
2023-02-14T23:01:28.185Z,80.29
2023-02-14T23:04:15.924Z,80.24
2023-02-14T23:07:01.542Z,80.15
2023-02-14T23:09:50.252Z,80.21
2023-02-14T23:12:54.111Z,80.41
2023-02-14T23:16:00.325Z,80.57
2023-02-14T23:19:04.456Z,80.55
2023-02-14T23:21:55.916Z,80.57
2023-02-14T23:24:45.643Z,80.48
2023-02-14T23:27:38.239Z,80.35
2023-02-14T23:30:24.041Z,80.16
2023-02-14T23:33:11.702Z,80.41
2023-02-14T23:35:57.113Z,80.21
2023-02-14T23:38:42.594Z,80.27
2023-02-14T23:41:46.679Z,80.95
2023-02-14T23:44:33.425Z,80.76
2023-02-14T23:47:18.832Z,80.49
2023-02-14T23:50:04.529Z,81.04
2023-02-14T23:52:51.095Z,80.85
2023-02-14T23:55:36.895Z,81.02
2023-02-14T23:58:22.222Z,81.05
